createdAt,value
2018-12-18T00:00:51.652Z,0.00
2018-12-18T00:01:51.633Z,0.00
2018-12-18T00:02:51.653Z,0.00
2018-12-18T00:03:51.642Z,0.00
2018-12-18T00:04:51.684Z,0.00
2018-12-18T00:05:51.821Z,0.00
2018-12-18T00:06:51.653Z,0.00
2018-12-18T00:07:51.659Z,0.00
2018-12-18T00:08:51.566Z,0.00
2018-12-18T00:09:51.557Z,0.00
2018-12-18T00:10:51.689Z,0.00
2018-12-18T00:11:51.527Z,0.00
2018-12-18T00:12:51.541Z,0.00
2018-12-18T00:13:51.543Z,0.00
2018-12-18T00:14:51.483Z,0.00
2018-12-18T00:15:51.475Z,0.00
2018-12-18T00:16:51.548Z,0.00
2018-12-18T00:17:51.481Z,0.00
2018-12-18T00:18:51.458Z,0.00
2018-12-18T00:19:51.435Z,0.00
2018-12-18T00:20:51.443Z,0.00
2018-12-18T00:21:51.411Z,0.00
2018-12-18T00:22:51.496Z,0.00
2018-12-18T00:23:51.397Z,0.00
2018-12-18T00:24:51.491Z,0.00
2018-12-18T00:25:51.393Z,0.00
2018-12-18T00:26:51.361Z,0.00
2018-12-18T00:27:51.351Z,0.00
2018-12-18T00:28:51.425Z,0.00
2018-12-18T00:29:51.329Z,0.00
2018-12-18T00:30:51.332Z,0.00
2018-12-18T00:31:51.299Z,0.00
2018-12-18T00:32:51.322Z,0.00
2018-12-18T00:33:51.292Z,0.00
2018-12-18T00:34:51.355Z,0.00
2018-12-18T00:35:51.302Z,0.00
2018-12-18T00:36:51.256Z,0.00
2018-12-18T00:37:51.235Z,0.00
2018-12-18T00:38:51.380Z,0.00
2018-12-18T00:39:51.229Z,0.00
2018-12-18T00:40:51.209Z,0.00
2018-12-18T00:41:51.206Z,0.00
2018-12-18T00:42:51.195Z,0.00
2018-12-18T00:43:51.171Z,0.00
2018-12-18T00:44:51.259Z,0.00
2018-12-18T00:45:51.483Z,0.00
2018-12-18T00:46:51.145Z,0.00
2018-12-18T00:47:51.154Z,0.00
2018-12-18T00:48:51.147Z,0.00
2018-12-18T00:49:51.107Z,0.00
2018-12-18T00:50:51.176Z,0.00
2018-12-18T00:51:51.088Z,0.00
2018-12-18T00:52:51.082Z,0.00
2018-12-18T00:53:51.070Z,0.00
2018-12-18T00:54:51.062Z,0.00
2018-12-18T00:55:51.075Z,0.00
2018-12-18T00:56:51.251Z,0.00
2018-12-18T00:57:51.043Z,0.00
2018-12-18T00:58:51.020Z,0.00
2018-12-18T00:59:51.021Z,0.00
2018-12-18T01:00:50.993Z,0.00
2018-12-18T01:01:50.982Z,0.00
2018-12-18T01:02:51.044Z,0.00
2018-12-18T01:03:52.871Z,0.00
2018-12-18T01:04:50.960Z,0.00
2018-12-18T01:05:50.984Z,0.00
2018-12-18T01:06:51.557Z,0.00
2018-12-18T01:07:53.510Z,0.00
2018-12-18T01:08:51.064Z,0.00
2018-12-18T01:09:50.919Z,0.00
2018-12-18T01:10:50.953Z,0.00
2018-12-18T01:11:50.919Z,0.00
2018-12-18T01:12:50.872Z,0.00
2018-12-18T01:13:50.859Z,0.00
2018-12-18T01:14:50.841Z,0.00
2018-12-18T01:15:50.903Z,0.00
2018-12-18T01:16:50.813Z,0.00
2018-12-18T01:17:50.817Z,0.00
2018-12-18T01:18:50.796Z,0.00
2018-12-18T01:19:50.787Z,0.00
2018-12-18T01:20:50.783Z,0.00
2018-12-18T01:21:50.846Z,0.00
2018-12-18T01:22:50.769Z,0.00
2018-12-18T01:23:50.756Z,0.00
2018-12-18T01:24:50.760Z,0.00
2018-12-18T01:25:50.724Z,0.00
2018-12-18T01:26:50.719Z,0.00
2018-12-18T01:27:51.613Z,0.00
2018-12-18T01:28:50.701Z,0.00
2018-12-18T01:29:50.683Z,0.00
2018-12-18T01:30:50.663Z,0.00
2018-12-18T01:31:50.663Z,0.00
2018-12-18T01:32:50.640Z,0.00
2018-12-18T01:33:50.706Z,0.00
2018-12-18T01:34:50.666Z,0.00
2018-12-18T01:35:50.609Z,0.00
2018-12-18T01:36:50.612Z,0.00
2018-12-18T01:37:50.589Z,0.00
2018-12-18T01:38:50.576Z,0.00
2018-12-18T01:39:50.650Z,0.00
2018-12-18T01:40:50.557Z,0.00
2018-12-18T01:41:50.551Z,0.00
2018-12-18T01:42:50.530Z,0.00
2018-12-18T01:43:50.531Z,0.00
2018-12-18T01:44:50.531Z,0.00
2018-12-18T01:45:50.630Z,0.00
2018-12-18T01:46:50.492Z,0.00
2018-12-18T01:47:50.533Z,0.00
2018-12-18T01:48:50.466Z,0.00
2018-12-18T01:49:50.455Z,0.00
2018-12-18T01:50:50.444Z,0.00
2018-12-18T01:51:50.535Z,0.00
2018-12-18T01:52:50.429Z,0.00
2018-12-18T01:53:50.417Z,0.00
2018-12-18T01:54:50.402Z,0.00
2018-12-18T01:55:50.395Z,0.00
2018-12-18T01:56:50.395Z,0.00
2018-12-18T01:57:50.673Z,0.00
2018-12-18T01:58:50.376Z,0.00
2018-12-18T01:59:50.344Z,0.00
2018-12-18T02:00:50.372Z,0.00
2018-12-18T02:01:50.384Z,0.00
2018-12-18T02:02:50.321Z,0.00
2018-12-18T02:03:50.457Z,0.00
2018-12-18T02:04:50.304Z,0.00
2018-12-18T02:05:50.330Z,0.00
2018-12-18T02:06:50.316Z,0.00
2018-12-18T02:07:50.290Z,0.00
2018-12-18T02:08:50.254Z,0.00
2018-12-18T02:09:50.356Z,0.00
2018-12-18T02:10:50.282Z,0.00
2018-12-18T02:11:50.222Z,0.00
2018-12-18T02:12:50.206Z,0.00
2018-12-18T02:13:50.215Z,0.00
2018-12-18T02:14:50.209Z,0.00
2018-12-18T02:15:50.263Z,0.00
2018-12-18T02:16:50.171Z,0.00
2018-12-18T02:17:50.156Z,0.00
2018-12-18T02:18:50.185Z,0.00
2018-12-18T02:19:50.128Z,0.00
2018-12-18T02:20:50.147Z,0.00
2018-12-18T02:21:50.192Z,0.00
2018-12-18T02:22:50.113Z,0.00
2018-12-18T02:23:50.105Z,0.00
2018-12-18T02:24:50.074Z,0.00
2018-12-18T02:25:50.073Z,0.00
2018-12-18T02:26:50.058Z,0.00
2018-12-18T02:27:50.186Z,0.00
2018-12-18T02:28:50.035Z,0.00
2018-12-18T02:29:50.027Z,0.00
2018-12-18T02:30:50.018Z,0.00
2018-12-18T02:31:50.027Z,0.00
2018-12-18T02:32:49.992Z,0.00
2018-12-18T02:33:50.127Z,0.00
2018-12-18T02:34:49.982Z,0.00
2018-12-18T02:35:50.013Z,0.00
2018-12-18T02:36:49.951Z,0.00
2018-12-18T02:37:49.944Z,0.00
2018-12-18T02:38:49.928Z,0.00
2018-12-18T02:39:49.995Z,0.00
2018-12-18T02:40:49.900Z,0.00
2018-12-18T02:41:49.892Z,0.00
2018-12-18T02:42:49.889Z,0.00
2018-12-18T02:43:49.873Z,0.00
2018-12-18T02:44:49.857Z,0.00
2018-12-18T02:45:49.918Z,0.00
2018-12-18T02:46:49.852Z,0.00
2018-12-18T02:47:49.842Z,0.00
2018-12-18T02:48:49.825Z,0.00
2018-12-18T02:49:49.812Z,0.00
2018-12-18T02:50:49.793Z,0.00
2018-12-18T02:51:49.880Z,0.00
2018-12-18T02:52:49.784Z,0.00
2018-12-18T02:53:49.777Z,0.00
2018-12-18T02:54:49.773Z,0.00
2018-12-18T02:55:49.761Z,0.00
2018-12-18T02:56:49.748Z,0.00
2018-12-18T02:57:49.812Z,0.00
2018-12-18T02:58:49.704Z,0.00
2018-12-18T02:59:49.705Z,0.00
2018-12-18T03:00:49.682Z,0.00
2018-12-18T03:01:49.687Z,0.00
2018-12-18T03:02:49.664Z,0.00
2018-12-18T03:03:49.718Z,0.00
2018-12-18T03:04:49.667Z,0.00
2018-12-18T03:05:49.649Z,0.00
2018-12-18T03:06:49.618Z,0.00
2018-12-18T03:07:49.629Z,0.00
2018-12-18T03:08:49.603Z,0.00
2018-12-18T03:09:49.724Z,0.00
2018-12-18T03:10:49.598Z,0.00
2018-12-18T03:11:49.567Z,0.00
2018-12-18T03:12:49.588Z,0.00
2018-12-18T03:13:49.547Z,0.00
2018-12-18T03:14:49.656Z,0.00
2018-12-18T03:15:49.519Z,0.00
2018-12-18T03:16:49.519Z,0.00
2018-12-18T03:17:49.508Z,0.00
2018-12-18T03:18:49.488Z,0.00
2018-12-18T03:19:49.496Z,0.00
2018-12-18T03:20:49.553Z,0.00
2018-12-18T03:21:49.473Z,0.00
2018-12-18T03:22:49.492Z,0.00
2018-12-18T03:23:49.443Z,0.00
2018-12-18T03:24:49.492Z,0.00
2018-12-18T03:25:49.424Z,0.00
2018-12-18T03:26:49.511Z,0.00
2018-12-18T03:27:49.443Z,0.00
2018-12-18T03:28:49.405Z,0.00
2018-12-18T03:29:49.390Z,0.00
2018-12-18T03:30:49.365Z,0.00
2018-12-18T03:31:49.351Z,0.00
2018-12-18T03:32:49.412Z,0.00
2018-12-18T03:33:49.334Z,0.00
2018-12-18T03:34:49.317Z,0.00
2018-12-18T03:35:49.309Z,0.00
2018-12-18T03:36:49.378Z,0.00
2018-12-18T03:37:49.290Z,0.00
2018-12-18T03:38:49.286Z,0.00
2018-12-18T03:39:49.258Z,0.00
2018-12-18T03:40:49.250Z,0.00
2018-12-18T03:41:49.256Z,0.00
2018-12-18T03:42:49.318Z,0.00
2018-12-18T03:43:49.229Z,0.00
2018-12-18T03:44:49.215Z,0.00
2018-12-18T03:45:49.207Z,0.00
2018-12-18T03:46:49.181Z,0.00
2018-12-18T03:47:49.169Z,0.00
2018-12-18T03:48:49.256Z,0.00
2018-12-18T03:49:49.157Z,0.00
2018-12-18T03:50:49.150Z,0.00
2018-12-18T03:51:49.135Z,0.00
2018-12-18T03:52:49.125Z,0.00
2018-12-18T03:53:49.116Z,0.00
2018-12-18T03:54:49.198Z,0.00
2018-12-18T03:55:49.121Z,0.00
2018-12-18T03:56:49.067Z,0.00
2018-12-18T03:57:49.069Z,0.00
2018-12-18T03:58:49.088Z,0.00
2018-12-18T03:59:49.047Z,0.00
2018-12-18T04:00:49.249Z,0.00
2018-12-18T04:01:49.026Z,0.00
2018-12-18T04:02:49.003Z,0.00
2018-12-18T04:03:49.004Z,0.00
2018-12-18T04:04:48.991Z,0.00
2018-12-18T04:05:49.745Z,0.00
2018-12-18T04:06:49.073Z,0.00
2018-12-18T04:07:48.979Z,0.00
2018-12-18T04:08:48.988Z,0.00
2018-12-18T04:09:48.957Z,0.00
2018-12-18T04:10:48.933Z,0.00
2018-12-18T04:11:48.916Z,0.00
2018-12-18T04:12:48.982Z,0.00
2018-12-18T04:13:48.976Z,0.00
2018-12-18T04:14:48.884Z,0.00
2018-12-18T04:15:48.865Z,0.00
2018-12-18T04:16:48.855Z,0.00
2018-12-18T04:17:48.846Z,0.00
2018-12-18T04:18:48.851Z,0.00
2018-12-18T04:19:48.890Z,0.00
2018-12-18T04:20:48.813Z,0.00
2018-12-18T04:21:49.569Z,0.00
2018-12-18T04:22:48.804Z,0.00
2018-12-18T04:23:48.792Z,0.00
2018-12-18T04:24:49.028Z,0.00
2018-12-18T04:25:48.885Z,0.00
2018-12-18T04:26:48.757Z,0.00
2018-12-18T04:27:48.735Z,0.00
2018-12-18T04:28:48.723Z,0.00
2018-12-18T04:29:48.717Z,0.00
2018-12-18T04:30:48.738Z,0.00
2018-12-18T04:31:48.789Z,0.00
2018-12-18T04:32:48.705Z,0.00
2018-12-18T04:33:48.673Z,0.00
2018-12-18T04:34:48.659Z,0.00
2018-12-18T04:35:48.738Z,0.00
2018-12-18T04:36:48.659Z,0.00
2018-12-18T04:37:48.632Z,0.00
2018-12-18T04:38:48.717Z,0.00
2018-12-18T04:39:48.614Z,0.00
2018-12-18T04:40:48.588Z,0.00
2018-12-18T04:41:48.586Z,0.00
2018-12-18T04:42:48.573Z,0.00
2018-12-18T04:43:48.566Z,0.00
2018-12-18T04:44:48.711Z,0.00
2018-12-18T04:45:48.550Z,0.00
2018-12-18T04:46:48.733Z,0.00
2018-12-18T04:47:48.555Z,0.00
2018-12-18T04:48:48.514Z,0.00
2018-12-18T04:49:48.526Z,0.00
2018-12-18T04:50:48.645Z,0.00
2018-12-18T04:51:48.466Z,0.00
2018-12-18T04:52:48.458Z,0.00
2018-12-18T04:53:48.486Z,0.00
2018-12-18T04:54:48.470Z,0.00
2018-12-18T04:55:48.428Z,0.00
2018-12-18T04:56:48.563Z,0.00
2018-12-18T04:57:48.399Z,0.00
2018-12-18T04:58:48.386Z,0.00
2018-12-18T04:59:48.383Z,0.00
2018-12-18T05:00:48.377Z,0.00
2018-12-18T05:01:48.371Z,0.00
2018-12-18T05:02:48.614Z,0.00
2018-12-18T05:03:48.346Z,0.00
2018-12-18T05:04:50.571Z,0.00
2018-12-18T05:05:49.578Z,0.00
2018-12-18T05:06:48.366Z,0.00
2018-12-18T05:07:48.327Z,0.00
2018-12-18T05:08:48.485Z,0.00
2018-12-18T05:09:48.300Z,0.00
2018-12-18T05:10:48.300Z,0.00
2018-12-18T05:11:48.264Z,0.00
2018-12-18T05:12:48.264Z,0.00
2018-12-18T05:13:48.231Z,0.00
2018-12-18T05:14:48.317Z,0.00
2018-12-18T05:15:48.205Z,0.00
2018-12-18T05:16:48.198Z,0.00
2018-12-18T05:17:48.200Z,0.00
2018-12-18T05:18:48.177Z,0.00
2018-12-18T05:19:48.192Z,0.00
2018-12-18T05:20:48.237Z,0.00
2018-12-18T05:21:48.144Z,0.00
2018-12-18T05:22:48.139Z,0.00
2018-12-18T05:23:48.120Z,0.00
2018-12-18T05:24:48.114Z,0.00
2018-12-18T05:25:48.093Z,0.00
2018-12-18T05:26:48.370Z,0.00
2018-12-18T05:27:48.083Z,0.00
2018-12-18T05:28:48.071Z,0.00
2018-12-18T05:29:48.453Z,0.00
2018-12-18T05:30:48.075Z,0.00
2018-12-18T05:31:48.036Z,0.00
2018-12-18T05:32:48.114Z,0.00
2018-12-18T05:33:48.009Z,0.00
2018-12-18T05:34:47.997Z,0.00
2018-12-18T05:35:47.989Z,0.00
2018-12-18T05:36:48.010Z,0.00
2018-12-18T05:37:48.064Z,0.00
2018-12-18T05:38:47.959Z,0.00
2018-12-18T05:39:47.950Z,0.00
2018-12-18T05:40:47.940Z,0.00
2018-12-18T05:41:48.175Z,0.00
2018-12-18T05:42:48.035Z,0.00
2018-12-18T05:43:47.915Z,0.00
2018-12-18T05:44:47.881Z,0.00
2018-12-18T05:45:47.876Z,0.00
2018-12-18T05:46:47.881Z,0.00
2018-12-18T05:47:47.907Z,0.00
2018-12-18T05:48:47.995Z,0.00
2018-12-18T05:49:47.843Z,0.00
2018-12-18T05:50:57.340Z,0.00
2018-12-18T05:51:47.918Z,0.00
2018-12-18T05:52:47.801Z,0.00
2018-12-18T05:53:47.833Z,0.00
2018-12-18T05:54:47.867Z,0.00
2018-12-18T05:55:47.768Z,0.00
2018-12-18T05:56:47.745Z,0.00
2018-12-18T05:57:47.748Z,0.00
2018-12-18T05:58:47.735Z,0.00
2018-12-18T05:59:47.728Z,0.00
2018-12-18T06:00:47.792Z,0.00
2018-12-18T06:01:47.692Z,0.00
2018-12-18T06:02:47.684Z,0.00
2018-12-18T06:03:47.676Z,0.00
2018-12-18T06:04:47.668Z,0.00
2018-12-18T06:05:47.679Z,0.00
2018-12-18T06:06:47.736Z,0.00
2018-12-18T06:07:47.635Z,0.00
2018-12-18T06:08:47.644Z,0.00
2018-12-18T06:09:47.639Z,0.00
2018-12-18T06:10:47.656Z,0.00
2018-12-18T06:11:47.602Z,0.00
2018-12-18T06:12:47.748Z,0.00
2018-12-18T06:13:47.567Z,0.00
2018-12-18T06:14:47.563Z,0.00
2018-12-18T06:15:47.559Z,0.00
2018-12-18T06:16:47.549Z,0.00
2018-12-18T06:17:47.521Z,0.00
2018-12-18T06:18:47.621Z,0.00
2018-12-18T06:19:47.602Z,0.00
2018-12-18T06:20:47.495Z,0.00
2018-12-18T06:21:47.483Z,0.00
2018-12-18T06:22:47.500Z,0.00
2018-12-18T06:23:47.455Z,0.00
2018-12-18T06:24:47.453Z,0.00
2018-12-18T06:25:47.566Z,0.00
2018-12-18T06:26:47.500Z,0.00
2018-12-18T06:27:47.414Z,0.00
2018-12-18T06:28:47.441Z,0.00
2018-12-18T06:29:47.410Z,0.00
2018-12-18T06:30:47.504Z,0.00
2018-12-18T06:31:47.497Z,0.00
2018-12-18T06:32:47.390Z,0.00
2018-12-18T06:33:47.358Z,0.00
2018-12-18T06:34:47.353Z,0.00
2018-12-18T06:35:47.489Z,0.00
2018-12-18T06:36:47.361Z,0.00
2018-12-18T06:37:47.420Z,0.00
2018-12-18T06:38:47.321Z,0.00
2018-12-18T06:39:47.290Z,0.00
2018-12-18T06:40:47.279Z,0.00
2018-12-18T06:41:47.267Z,0.00
2018-12-18T06:42:47.311Z,0.00
2018-12-18T06:43:47.359Z,0.00
2018-12-18T06:44:47.228Z,0.00
2018-12-18T06:45:47.218Z,0.00
2018-12-18T06:46:47.762Z,0.00
2018-12-18T06:47:47.191Z,0.00
2018-12-18T06:48:47.225Z,0.00
2018-12-18T06:49:47.177Z,0.00
2018-12-18T06:50:47.159Z,0.00
2018-12-18T06:52:01.730Z,0.00
2018-12-18T06:52:47.158Z,0.00
2018-12-18T06:53:47.135Z,0.00
2018-12-18T06:54:47.117Z,0.00
2018-12-18T06:55:47.333Z,0.00
2018-12-18T06:56:47.091Z,0.00
2018-12-18T06:57:47.262Z,0.00
2018-12-18T06:58:47.071Z,0.00
2018-12-18T06:59:47.113Z,0.00
2018-12-18T07:00:47.055Z,0.00
2018-12-18T07:01:47.296Z,0.00
2018-12-18T07:02:47.028Z,0.00
2018-12-18T07:03:47.490Z,0.00
2018-12-18T07:04:47.010Z,0.00
2018-12-18T07:05:47.012Z,0.00
2018-12-18T07:06:46.988Z,0.00
2018-12-18T07:07:46.966Z,0.00
2018-12-18T07:08:46.964Z,0.00
2018-12-18T07:09:47.069Z,0.00
2018-12-18T07:10:46.945Z,0.00
2018-12-18T07:11:46.933Z,0.00
2018-12-18T07:12:47.200Z,0.00
2018-12-18T07:13:46.906Z,0.00
2018-12-18T07:14:46.908Z,0.00
2018-12-18T07:15:47.025Z,0.00
2018-12-18T07:16:46.922Z,5.62
2018-12-18T07:17:46.859Z,5.62
2018-12-18T07:18:46.867Z,5.62
2018-12-18T07:19:46.836Z,5.62
2018-12-18T07:20:46.836Z,5.62
2018-12-18T07:21:46.902Z,5.62
2018-12-18T07:22:46.798Z,5.62
2018-12-18T07:23:46.914Z,5.62
2018-12-18T07:24:46.777Z,5.62
2018-12-18T07:25:46.780Z,5.62
2018-12-18T07:26:46.832Z,5.62
2018-12-18T07:27:46.767Z,11.25
2018-12-18T07:28:46.790Z,11.25
2018-12-18T07:29:46.748Z,11.25
2018-12-18T07:30:46.707Z,11.25
2018-12-18T07:31:46.998Z,11.25
2018-12-18T07:32:47.302Z,16.88
2018-12-18T07:33:47.209Z,16.88
2018-12-18T07:34:46.721Z,16.88
2018-12-18T07:35:46.841Z,16.88
2018-12-18T07:36:46.642Z,16.88
2018-12-18T07:37:46.718Z,22.50
2018-12-18T07:38:46.822Z,22.50
2018-12-18T07:39:46.624Z,22.50
2018-12-18T07:40:46.602Z,22.50
2018-12-18T07:41:46.614Z,22.50
2018-12-18T07:42:46.589Z,28.12
2018-12-18T07:43:46.853Z,28.12
2018-12-18T07:44:46.564Z,28.12
2018-12-18T07:45:46.540Z,22.50
2018-12-18T07:46:46.558Z,22.50
2018-12-18T07:47:46.519Z,22.50
2018-12-18T07:48:46.611Z,22.50
2018-12-18T07:49:46.626Z,16.88
2018-12-18T07:50:46.488Z,11.25
2018-12-18T07:51:46.501Z,11.25
2018-12-18T07:52:46.470Z,11.25
2018-12-18T07:53:46.474Z,16.88
2018-12-18T07:54:46.456Z,16.88
2018-12-18T07:55:46.569Z,11.25
2018-12-18T07:56:46.434Z,11.25
2018-12-18T07:57:46.430Z,11.25
2018-12-18T07:58:46.661Z,16.88
2018-12-18T07:59:46.438Z,16.88
2018-12-18T08:00:46.536Z,22.50
2018-12-18T08:01:46.449Z,28.12
2018-12-18T08:02:46.413Z,28.12
2018-12-18T08:03:46.418Z,28.12
2018-12-18T08:04:46.395Z,28.12
2018-12-18T08:05:46.436Z,28.12
2018-12-18T08:06:46.460Z,28.12
2018-12-18T08:07:46.320Z,28.12
2018-12-18T08:08:46.291Z,33.75
2018-12-18T08:09:46.290Z,33.75
2018-12-18T08:10:46.267Z,39.38
2018-12-18T08:11:46.268Z,39.38
2018-12-18T08:12:46.409Z,39.38
2018-12-18T08:13:46.324Z,39.38
2018-12-18T08:14:46.225Z,45.00
2018-12-18T08:15:46.217Z,45.00
2018-12-18T08:16:46.213Z,45.00
2018-12-18T08:17:46.234Z,45.00
2018-12-18T08:18:46.177Z,50.62
2018-12-18T08:19:46.964Z,50.62
2018-12-18T08:20:46.318Z,50.62
2018-12-18T08:21:46.153Z,50.62
2018-12-18T08:23:01.514Z,50.62
2018-12-18T08:23:46.274Z,50.62
2018-12-18T08:24:46.139Z,56.25
2018-12-18T08:25:46.105Z,56.25
2018-12-18T08:26:46.088Z,56.25
2018-12-18T08:27:46.107Z,61.88
2018-12-18T08:28:46.116Z,61.88
2018-12-18T08:29:46.293Z,61.88
2018-12-18T08:30:46.059Z,56.25
2018-12-18T08:31:46.161Z,56.25
2018-12-18T08:32:46.082Z,56.25
2018-12-18T08:33:46.023Z,61.88
2018-12-18T08:34:46.117Z,61.88
2018-12-18T08:35:46.112Z,61.88
2018-12-18T08:36:45.995Z,61.88
2018-12-18T08:37:45.972Z,56.25
2018-12-18T08:38:45.961Z,56.25
2018-12-18T08:39:45.991Z,61.88
2018-12-18T08:40:46.643Z,61.88
2018-12-18T08:41:46.063Z,67.50
2018-12-18T08:42:45.921Z,67.50
2018-12-18T08:43:45.913Z,67.50
2018-12-18T08:44:45.912Z,73.12
2018-12-18T08:45:45.907Z,73.12
2018-12-18T08:46:45.888Z,73.12
2018-12-18T08:47:45.963Z,78.75
2018-12-18T08:48:45.852Z,78.75
2018-12-18T08:49:45.849Z,78.75
2018-12-18T08:50:45.849Z,73.12
2018-12-18T08:51:45.822Z,73.12
2018-12-18T08:52:45.839Z,61.88
2018-12-18T08:53:45.900Z,61.88
2018-12-18T08:54:45.811Z,56.25
2018-12-18T08:55:45.789Z,56.25
2018-12-18T08:56:45.770Z,50.62
2018-12-18T08:57:45.760Z,56.25
2018-12-18T08:58:45.760Z,56.25
2018-12-18T08:59:45.860Z,61.88
2018-12-18T09:00:45.718Z,67.50
2018-12-18T09:01:46.460Z,67.50
2018-12-18T09:02:45.790Z,67.50
2018-12-18T09:03:45.715Z,67.50
2018-12-18T09:04:45.689Z,67.50
2018-12-18T09:05:45.687Z,67.50
2018-12-18T09:06:45.692Z,67.50
2018-12-18T09:07:45.791Z,67.50
2018-12-18T09:08:45.680Z,67.50
2018-12-18T09:09:45.628Z,61.88
2018-12-18T09:10:45.757Z,61.88
2018-12-18T09:11:45.658Z,67.50
2018-12-18T09:12:45.743Z,67.50
2018-12-18T09:13:45.593Z,73.12
2018-12-18T09:14:45.565Z,73.12
2018-12-18T09:15:45.572Z,78.75
2018-12-18T09:16:45.570Z,84.38
2018-12-18T09:17:45.532Z,90.00
2018-12-18T09:18:45.621Z,90.00
2018-12-18T09:19:45.511Z,95.62
2018-12-18T09:20:45.501Z,106.88
2018-12-18T09:21:45.501Z,112.50
2018-12-18T09:22:46.298Z,118.12
2018-12-18T09:23:48.135Z,118.12
2018-12-18T09:24:45.532Z,112.50
2018-12-18T09:25:45.462Z,112.50
2018-12-18T09:26:45.436Z,112.50
2018-12-18T09:27:45.442Z,123.75
2018-12-18T09:28:45.459Z,129.38
2018-12-18T09:29:45.413Z,129.38
2018-12-18T09:30:46.204Z,123.75
2018-12-18T09:31:45.390Z,123.75
2018-12-18T09:32:45.375Z,135.00
2018-12-18T09:33:45.367Z,140.62
2018-12-18T09:34:45.345Z,146.25
2018-12-18T09:35:49.737Z,151.88
2018-12-18T09:36:45.688Z,157.50
2018-12-18T09:37:45.423Z,157.50
2018-12-18T09:38:45.337Z,163.12
2018-12-18T09:39:45.327Z,168.75
2018-12-18T09:40:45.292Z,168.75
2018-12-18T09:41:45.291Z,174.38
2018-12-18T09:42:45.345Z,185.62
2018-12-18T09:43:45.585Z,185.62
2018-12-18T09:44:45.258Z,196.88
2018-12-18T09:45:45.250Z,196.88
2018-12-18T09:46:45.223Z,191.25
2018-12-18T09:47:45.208Z,185.62
2018-12-18T09:48:45.310Z,196.88
2018-12-18T09:49:45.196Z,213.75
2018-12-18T09:50:45.173Z,219.38
2018-12-18T09:51:45.194Z,230.62
2018-12-18T09:52:45.154Z,230.62
2018-12-18T09:53:45.136Z,202.50
2018-12-18T09:54:45.283Z,174.38
2018-12-18T09:55:45.135Z,208.12
2018-12-18T09:56:45.119Z,202.50
2018-12-18T09:57:45.103Z,163.12
2018-12-18T09:58:45.078Z,157.50
2018-12-18T09:59:45.076Z,180.00
2018-12-18T10:00:45.231Z,196.88
2018-12-18T10:01:45.056Z,208.12
2018-12-18T10:02:45.071Z,219.38
2018-12-18T10:03:45.046Z,241.88
2018-12-18T10:04:45.023Z,247.50
2018-12-18T10:05:45.008Z,253.12
2018-12-18T10:06:45.263Z,253.12
2018-12-18T10:07:45.009Z,253.12
2018-12-18T10:08:45.364Z,253.12
2018-12-18T10:09:44.957Z,241.88
2018-12-18T10:10:44.943Z,208.12
2018-12-18T10:11:44.962Z,219.38
2018-12-18T10:12:44.967Z,213.75
2018-12-18T10:13:45.368Z,241.88
2018-12-18T10:14:44.937Z,270.00
2018-12-18T10:15:44.905Z,275.62
2018-12-18T10:16:44.883Z,270.00
2018-12-18T10:17:44.928Z,275.62
2018-12-18T10:18:44.869Z,275.62
2018-12-18T10:19:45.030Z,247.50
2018-12-18T10:20:44.845Z,270.00
2018-12-18T10:21:44.845Z,275.62
2018-12-18T10:22:44.830Z,253.12
2018-12-18T10:23:44.922Z,286.88
2018-12-18T10:24:44.801Z,270.00
2018-12-18T10:25:44.813Z,281.25
2018-12-18T10:26:44.943Z,270.00
2018-12-18T10:27:44.773Z,236.25
2018-12-18T10:28:44.755Z,258.75
2018-12-18T10:29:45.878Z,303.75
2018-12-18T10:30:45.280Z,326.25
2018-12-18T10:31:45.187Z,298.12
2018-12-18T10:32:44.896Z,275.62
2018-12-18T10:33:44.701Z,264.38
2018-12-18T10:34:44.785Z,298.12
2018-12-18T10:35:44.782Z,309.38
2018-12-18T10:36:44.685Z,303.75
2018-12-18T10:37:44.658Z,298.12
2018-12-18T10:38:44.669Z,286.88
2018-12-18T10:39:44.648Z,264.38
2018-12-18T10:40:44.648Z,225.00
2018-12-18T10:41:44.772Z,247.50
2018-12-18T10:42:44.599Z,253.12
2018-12-18T10:43:44.797Z,298.12
2018-12-18T10:44:44.593Z,331.88
2018-12-18T10:45:44.586Z,343.12
2018-12-18T10:46:44.568Z,326.25
2018-12-18T10:47:44.730Z,303.75
2018-12-18T10:48:44.596Z,292.50
2018-12-18T10:49:44.536Z,298.12
2018-12-18T10:50:44.526Z,292.50
2018-12-18T10:51:44.525Z,281.25
2018-12-18T10:52:44.521Z,281.25
2018-12-18T10:53:44.717Z,275.62
2018-12-18T10:54:44.461Z,253.12
2018-12-18T10:55:44.477Z,241.88
2018-12-18T10:56:44.457Z,253.12
2018-12-18T10:57:44.450Z,258.75
2018-12-18T10:58:44.551Z,241.88
2018-12-18T10:59:44.447Z,230.62
2018-12-18T11:00:44.425Z,213.75
2018-12-18T11:01:44.421Z,219.38
2018-12-18T11:02:44.423Z,219.38
2018-12-18T11:03:44.545Z,219.38
2018-12-18T11:04:44.403Z,230.62
2018-12-18T11:05:44.416Z,236.25
2018-12-18T11:06:44.433Z,213.75
2018-12-18T11:07:44.326Z,225.00
2018-12-18T11:08:44.332Z,247.50
2018-12-18T11:09:44.433Z,241.88
2018-12-18T11:10:44.306Z,247.50
2018-12-18T11:11:44.276Z,213.75
2018-12-18T11:12:44.269Z,208.12
2018-12-18T11:13:44.272Z,225.00
2018-12-18T11:14:44.274Z,236.25
2018-12-18T11:15:44.332Z,253.12
2018-12-18T11:16:44.233Z,270.00
2018-12-18T11:17:44.221Z,253.12
2018-12-18T11:18:44.207Z,253.12
2018-12-18T11:19:44.205Z,247.50
2018-12-18T11:20:44.187Z,253.12
2018-12-18T11:21:44.300Z,236.25
2018-12-18T11:22:44.171Z,253.12
2018-12-18T11:23:44.197Z,258.75
2018-12-18T11:24:44.170Z,270.00
2018-12-18T11:25:44.135Z,275.62
2018-12-18T11:26:44.125Z,258.75
2018-12-18T11:27:44.339Z,247.50
2018-12-18T11:28:44.101Z,253.12
2018-12-18T11:29:44.086Z,258.75
2018-12-18T11:30:44.090Z,270.00
2018-12-18T11:31:44.190Z,281.25
2018-12-18T11:32:44.151Z,303.75
2018-12-18T11:33:44.121Z,326.25
2018-12-18T11:34:44.194Z,348.75
2018-12-18T11:35:44.132Z,388.12
2018-12-18T11:36:44.137Z,410.62
2018-12-18T11:37:44.025Z,438.75
2018-12-18T11:38:44.055Z,461.25
2018-12-18T11:39:44.297Z,472.50
2018-12-18T11:40:44.031Z,495.00
2018-12-18T11:41:43.978Z,500.62
2018-12-18T11:42:43.958Z,511.88
2018-12-18T11:43:43.970Z,517.50
2018-12-18T11:44:43.944Z,511.88
2018-12-18T11:45:44.020Z,472.50
2018-12-18T11:46:43.892Z,433.12
2018-12-18T11:47:43.998Z,427.50
2018-12-18T11:48:43.887Z,421.88
2018-12-18T11:49:43.890Z,421.88
2018-12-18T11:50:43.960Z,438.75
2018-12-18T11:51:43.855Z,455.62
2018-12-18T11:52:43.833Z,461.25
2018-12-18T11:53:43.831Z,455.62
2018-12-18T11:54:43.835Z,438.75
2018-12-18T11:55:43.830Z,461.25
2018-12-18T11:56:44.045Z,472.50
2018-12-18T11:57:43.812Z,461.25
2018-12-18T11:58:43.761Z,489.38
2018-12-18T11:59:43.772Z,523.12
2018-12-18T12:00:43.774Z,540.00
2018-12-18T12:01:43.745Z,579.38
2018-12-18T12:02:43.854Z,562.50
2018-12-18T12:03:43.711Z,540.00
2018-12-18T12:04:43.697Z,556.88
2018-12-18T12:05:43.692Z,669.38
2018-12-18T12:06:43.701Z,669.38
2018-12-18T12:07:43.668Z,781.88
2018-12-18T12:08:43.834Z,675.00
2018-12-18T12:09:43.645Z,596.25
2018-12-18T12:10:44.082Z,573.75
2018-12-18T12:11:43.646Z,551.25
2018-12-18T12:12:43.646Z,528.75
2018-12-18T12:13:43.648Z,511.88
2018-12-18T12:14:43.588Z,500.62
2018-12-18T12:15:43.773Z,483.75
2018-12-18T12:16:43.600Z,478.12
2018-12-18T12:17:43.552Z,478.12
2018-12-18T12:18:43.540Z,472.50
2018-12-18T12:19:43.536Z,472.50
2018-12-18T12:20:43.527Z,466.88
2018-12-18T12:21:43.829Z,478.12
2018-12-18T12:22:43.505Z,444.38
2018-12-18T12:23:43.527Z,433.12
2018-12-18T12:25:55.231Z,433.12
2018-12-18T12:26:55.420Z,382.50
2018-12-18T12:27:55.137Z,376.88
2018-12-18T12:28:55.095Z,348.75
2018-12-18T12:29:55.143Z,309.38
2018-12-18T12:30:55.065Z,286.88
2018-12-18T12:31:55.140Z,275.62
2018-12-18T12:32:55.048Z,298.12
2018-12-18T12:33:55.050Z,337.50
2018-12-18T12:34:55.025Z,315.00
2018-12-18T12:35:55.056Z,298.12
2018-12-18T12:36:55.015Z,315.00
2018-12-18T12:37:55.090Z,320.62
2018-12-18T12:38:54.986Z,337.50
2018-12-18T12:39:55.052Z,337.50
2018-12-18T12:40:57.471Z,343.12
2018-12-18T12:41:54.972Z,303.75
2018-12-18T12:42:54.949Z,281.25
2018-12-18T12:43:55.164Z,298.12
2018-12-18T12:44:54.914Z,315.00
2018-12-18T12:45:54.906Z,298.12
2018-12-18T12:46:59.693Z,309.38
2018-12-18T12:47:55.087Z,303.75
2018-12-18T12:48:54.878Z,292.50
2018-12-18T12:49:55.008Z,286.88
2018-12-18T12:50:54.858Z,292.50
2018-12-18T12:51:54.848Z,292.50
2018-12-18T12:52:54.839Z,270.00
2018-12-18T12:53:54.824Z,253.12
2018-12-18T12:54:54.811Z,225.00
2018-12-18T12:55:54.925Z,202.50
2018-12-18T12:56:54.837Z,208.12
2018-12-18T12:57:54.771Z,219.38
2018-12-18T12:58:54.810Z,208.12
2018-12-18T12:59:54.753Z,191.25
2018-12-18T13:00:54.743Z,168.75